sensor_id;sensor_type;location;lat;lon;timestamp;P1;durP1;ratioP1;P2;durP2;ratioP2
51216;SDS011;37283;49.760;8.648;2022-08-06T00:02:20;4.93;;;1.50;;
51216;SDS011;37283;49.760;8.648;2022-08-06T00:04:58;4.70;;;1.30;;
51216;SDS011;37283;49.760;8.648;2022-08-06T00:07:26;3.65;;;1.48;;
51216;SDS011;37283;49.760;8.648;2022-08-06T00:09:54;2.47;;;1.40;;
51216;SDS011;37283;49.760;8.648;2022-08-06T00:12:28;5.63;;;1.30;;
51216;SDS011;37283;49.760;8.648;2022-08-06T00:14:58;3.33;;;1.20;;
51216;SDS011;37283;49.760;8.648;2022-08-06T00:17:25;2.05;;;1.00;;
51216;SDS011;37283;49.760;8.648;2022-08-06T00:19:58;3.10;;;1.33;;
51216;SDS011;37283;49.760;8.648;2022-08-06T00:22:26;2.70;;;1.30;;
51216;SDS011;37283;49.760;8.648;2022-08-06T00:24:55;3.25;;;1.25;;
51216;SDS011;37283;49.760;8.648;2022-08-06T00:27:23;7.20;;;1.60;;
51216;SDS011;37283;49.760;8.648;2022-08-06T00:30:04;3.55;;;1.30;;
51216;SDS011;37283;49.760;8.648;2022-08-06T00:32:40;1.73;;;1.13;;
51216;SDS011;37283;49.760;8.648;2022-08-06T00:35:08;3.40;;;1.30;;
51216;SDS011;37283;49.760;8.648;2022-08-06T00:37:35;3.50;;;1.40;;
51216;SDS011;37283;49.760;8.648;2022-08-06T00:40:22;2.72;;;1.23;;
51216;SDS011;37283;49.760;8.648;2022-08-06T00:42:50;2.35;;;1.20;;
51216;SDS011;37283;49.760;8.648;2022-08-06T00:45:20;4.97;;;1.23;;
51216;SDS011;37283;49.760;8.648;2022-08-06T00:47:50;4.40;;;1.17;;
51216;SDS011;37283;49.760;8.648;2022-08-06T00:50:32;3.38;;;1.05;;
51216;SDS011;37283;49.760;8.648;2022-08-06T00:53:00;2.17;;;0.95;;
51216;SDS011;37283;49.760;8.648;2022-08-06T00:55:28;3.97;;;1.30;;
51216;SDS011;37283;49.760;8.648;2022-08-06T00:58:00;2.95;;;1.20;;
51216;SDS011;37283;49.760;8.648;2022-08-06T01:00:28;4.25;;;1.25;;
51216;SDS011;37283;49.760;8.648;2022-08-06T01:03:01;2.38;;;1.13;;
51216;SDS011;37283;49.760;8.648;2022-08-06T01:05:28;4.20;;;0.90;;
51216;SDS011;37283;49.760;8.648;2022-08-06T01:08:15;2.67;;;0.88;;
51216;SDS011;37283;49.760;8.648;2022-08-06T01:10:41;2.13;;;0.90;;
51216;SDS011;37283;49.760;8.648;2022-08-06T01:13:09;1.90;;;0.98;;
51216;SDS011;37283;49.760;8.648;2022-08-06T01:15:53;5.38;;;1.20;;
51216;SDS011;37283;49.760;8.648;2022-08-06T01:21:49;5.78;;;1.38;;
51216;SDS011;37283;49.760;8.648;2022-08-06T01:29:46;4.00;;;0.90;;
51216;SDS011;37283;49.760;8.648;2022-08-06T01:32:15;4.85;;;0.90;;
51216;SDS011;37283;49.760;8.648;2022-08-06T01:37:20;5.63;;;1.45;;
51216;SDS011;37283;49.760;8.648;2022-08-06T01:39:49;4.32;;;1.10;;
51216;SDS011;37283;49.760;8.648;2022-08-06T01:42:30;2.58;;;1.05;;
51216;SDS011;37283;49.760;8.648;2022-08-06T01:45:02;3.00;;;0.98;;
51216;SDS011;37283;49.760;8.648;2022-08-06T01:47:30;2.43;;;1.07;;
51216;SDS011;37283;49.760;8.648;2022-08-06T01:50:19;2.53;;;1.25;;
51216;SDS011;37283;49.760;8.648;2022-08-06T01:52:53;3.75;;;1.08;;
51216;SDS011;37283;49.760;8.648;2022-08-06T01:55:26;1.48;;;0.80;;
51216;SDS011;37283;49.760;8.648;2022-08-06T02:00:54;2.63;;;1.10;;
51216;SDS011;37283;49.760;8.648;2022-08-06T02:03:38;3.83;;;1.00;;
51216;SDS011;37283;49.760;8.648;2022-08-06T02:06:28;2.17;;;1.10;;
51216;SDS011;37283;49.760;8.648;2022-08-06T02:08:58;4.45;;;1.00;;
51216;SDS011;37283;49.760;8.648;2022-08-06T02:12:00;2.40;;;0.95;;
51216;SDS011;37283;49.760;8.648;2022-08-06T02:14:34;3.35;;;1.10;;
51216;SDS011;37283;49.760;8.648;2022-08-06T02:17:03;2.60;;;1.10;;
51216;SDS011;37283;49.760;8.648;2022-08-06T02:19:47;3.25;;;1.27;;
51216;SDS011;37283;49.760;8.648;2022-08-06T02:22:36;2.95;;;1.05;;
51216;SDS011;37283;49.760;8.648;2022-08-06T02:25:05;4.25;;;1.10;;
51216;SDS011;37283;49.760;8.648;2022-08-06T02:27:53;2.05;;;0.90;;
51216;SDS011;37283;49.760;8.648;2022-08-06T02:30:25;3.75;;;1.02;;
51216;SDS011;37283;49.760;8.648;2022-08-06T02:33:02;4.40;;;1.13;;
51216;SDS011;37283;49.760;8.648;2022-08-06T02:35:32;2.20;;;1.00;;
51216;SDS011;37283;49.760;8.648;2022-08-06T02:40:57;2.30;;;0.90;;
51216;SDS011;37283;49.760;8.648;2022-08-06T02:43:35;3.30;;;1.00;;
51216;SDS011;37283;49.760;8.648;2022-08-06T02:46:10;3.88;;;0.93;;
51216;SDS011;37283;49.760;8.648;2022-08-06T02:48:48;5.88;;;1.27;;
51216;SDS011;37283;49.760;8.648;2022-08-06T02:51:25;2.42;;;0.82;;
51216;SDS011;37283;49.760;8.648;2022-08-06T02:54:17;1.92;;;1.02;;
51216;SDS011;37283;49.760;8.648;2022-08-06T02:56:50;3.22;;;1.00;;
51216;SDS011;37283;49.760;8.648;2022-08-06T02:59:20;2.42;;;1.00;;
51216;SDS011;37283;49.760;8.648;2022-08-06T03:01:50;2.97;;;1.02;;
51216;SDS011;37283;49.760;8.648;2022-08-06T03:04:21;3.33;;;0.90;;
51216;SDS011;37283;49.760;8.648;2022-08-06T03:06:58;1.77;;;1.02;;
51216;SDS011;37283;49.760;8.648;2022-08-06T03:09:31;2.47;;;0.90;;
51216;SDS011;37283;49.760;8.648;2022-08-06T03:12:03;2.25;;;0.95;;
51216;SDS011;37283;49.760;8.648;2022-08-06T03:14:52;2.13;;;1.10;;
51216;SDS011;37283;49.760;8.648;2022-08-06T03:17:36;3.92;;;1.10;;
51216;SDS011;37283;49.760;8.648;2022-08-06T03:20:04;2.85;;;1.00;;
51216;SDS011;37283;49.760;8.648;2022-08-06T03:22:41;1.58;;;0.88;;
51216;SDS011;37283;49.760;8.648;2022-08-06T03:25:10;3.83;;;1.00;;
51216;SDS011;37283;49.760;8.648;2022-08-06T03:27:38;2.38;;;0.90;;
51216;SDS011;37283;49.760;8.648;2022-08-06T03:30:13;2.33;;;0.98;;
51216;SDS011;37283;49.760;8.648;2022-08-06T03:32:59;2.97;;;0.95;;
51216;SDS011;37283;49.760;8.648;2022-08-06T03:35:39;2.28;;;0.80;;
51216;SDS011;37283;49.760;8.648;2022-08-06T03:38:15;1.75;;;0.77;;
51216;SDS011;37283;49.760;8.648;2022-08-06T03:40:43;4.30;;;1.00;;
51216;SDS011;37283;49.760;8.648;2022-08-06T03:43:13;3.72;;;1.10;;
51216;SDS011;37283;49.760;8.648;2022-08-06T03:45:53;1.40;;;0.88;;
51216;SDS011;37283;49.760;8.648;2022-08-06T03:48:24;1.90;;;0.90;;
51216;SDS011;37283;49.760;8.648;2022-08-06T03:51:02;2.80;;;1.10;;
51216;SDS011;37283;49.760;8.648;2022-08-06T03:53:35;2.13;;;1.00;;
51216;SDS011;37283;49.760;8.648;2022-08-06T03:56:08;3.42;;;1.20;;
51216;SDS011;37283;49.760;8.648;2022-08-06T03:58:40;3.67;;;1.10;;
51216;SDS011;37283;49.760;8.648;2022-08-06T04:01:08;3.50;;;0.82;;
51216;SDS011;37283;49.760;8.648;2022-08-06T04:03:37;4.72;;;1.00;;
51216;SDS011;37283;49.760;8.648;2022-08-06T04:06:06;3.75;;;1.00;;
51216;SDS011;37283;49.760;8.648;2022-08-06T04:08:46;2.72;;;0.90;;
51216;SDS011;37283;49.760;8.648;2022-08-06T04:11:13;5.15;;;1.10;;
51216;SDS011;37283;49.760;8.648;2022-08-06T04:14:00;1.65;;;1.00;;
51216;SDS011;37283;49.760;8.648;2022-08-06T04:16:33;2.55;;;0.77;;
51216;SDS011;37283;49.760;8.648;2022-08-06T04:19:02;2.60;;;0.80;;
51216;SDS011;37283;49.760;8.648;2022-08-06T04:21:34;2.42;;;0.88;;
51216;SDS011;37283;49.760;8.648;2022-08-06T04:24:21;2.20;;;1.00;;
51216;SDS011;37283;49.760;8.648;2022-08-06T04:26:55;2.15;;;1.05;;
51216;SDS011;37283;49.760;8.648;2022-08-06T04:29:25;4.22;;;1.02;;
51216;SDS011;37283;49.760;8.648;2022-08-06T04:32:12;4.10;;;1.05;;
51216;SDS011;37283;49.760;8.648;2022-08-06T04:34:45;2.28;;;1.10;;
51216;SDS011;37283;49.760;8.648;2022-08-06T04:37:33;2.80;;;1.15;;
51216;SDS011;37283;49.760;8.648;2022-08-06T04:40:06;1.85;;;1.00;;
51216;SDS011;37283;49.760;8.648;2022-08-06T04:42:40;4.00;;;0.90;;
51216;SDS011;37283;49.760;8.648;2022-08-06T04:45:08;5.43;;;1.48;;
51216;SDS011;37283;49.760;8.648;2022-08-06T04:47:55;3.45;;;1.25;;
51216;SDS011;37283;49.760;8.648;2022-08-06T04:50:23;1.73;;;0.90;;
51216;SDS011;37283;49.760;8.648;2022-08-06T04:52:51;4.13;;;1.30;;
51216;SDS011;37283;49.760;8.648;2022-08-06T04:55:21;2.53;;;1.02;;
51216;SDS011;37283;49.760;8.648;2022-08-06T04:57:50;3.42;;;1.02;;
51216;SDS011;37283;49.760;8.648;2022-08-06T05:00:28;3.80;;;1.13;;
51216;SDS011;37283;49.760;8.648;2022-08-06T05:02:59;3.78;;;1.05;;
51216;SDS011;37283;49.760;8.648;2022-08-06T05:05:25;1.45;;;0.77;;
51216;SDS011;37283;49.760;8.648;2022-08-06T05:07:53;6.07;;;1.10;;
51216;SDS011;37283;49.760;8.648;2022-08-06T05:10:29;1.73;;;0.90;;
51216;SDS011;37283;49.760;8.648;2022-08-06T05:12:57;2.42;;;1.20;;
51216;SDS011;37283;49.760;8.648;2022-08-06T05:15:33;4.82;;;0.90;;
51216;SDS011;37283;49.760;8.648;2022-08-06T05:18:11;2.33;;;0.90;;
51216;SDS011;37283;49.760;8.648;2022-08-06T05:20:59;2.13;;;1.10;;
51216;SDS011;37283;49.760;8.648;2022-08-06T05:23:35;2.35;;;0.98;;
51216;SDS011;37283;49.760;8.648;2022-08-06T05:26:03;2.40;;;0.90;;
51216;SDS011;37283;49.760;8.648;2022-08-06T05:28:31;1.77;;;0.80;;
51216;SDS011;37283;49.760;8.648;2022-08-06T05:30:58;1.83;;;0.90;;
51216;SDS011;37283;49.760;8.648;2022-08-06T05:33:31;3.42;;;0.93;;
51216;SDS011;37283;49.760;8.648;2022-08-06T05:36:05;2.05;;;1.00;;
51216;SDS011;37283;49.760;8.648;2022-08-06T05:38:38;5.90;;;1.17;;
51216;SDS011;37283;49.760;8.648;2022-08-06T05:41:25;2.60;;;1.00;;
51216;SDS011;37283;49.760;8.648;2022-08-06T05:43:55;3.58;;;1.10;;
51216;SDS011;37283;49.760;8.648;2022-08-06T05:46:26;8.45;;;1.10;;
51216;SDS011;37283;49.760;8.648;2022-08-06T05:48:59;2.88;;;1.00;;
51216;SDS011;37283;49.760;8.648;2022-08-06T05:51:55;2.17;;;1.15;;
51216;SDS011;37283;49.760;8.648;2022-08-06T05:54:28;4.63;;;1.00;;
51216;SDS011;37283;49.760;8.648;2022-08-06T05:57:08;5.38;;;1.00;;
51216;SDS011;37283;49.760;8.648;2022-08-06T05:59:43;2.40;;;0.90;;
51216;SDS011;37283;49.760;8.648;2022-08-06T06:02:24;2.35;;;1.15;;
51216;SDS011;37283;49.760;8.648;2022-08-06T06:04:52;3.60;;;0.80;;
51216;SDS011;37283;49.760;8.648;2022-08-06T06:07:39;1.40;;;0.90;;
51216;SDS011;37283;49.760;8.648;2022-08-06T06:10:26;1.95;;;1.10;;
51216;SDS011;37283;49.760;8.648;2022-08-06T06:12:54;4.43;;;1.02;;
51216;SDS011;37283;49.760;8.648;2022-08-06T06:15:21;5.03;;;1.20;;
51216;SDS011;37283;49.760;8.648;2022-08-06T06:18:10;1.88;;;0.85;;
51216;SDS011;37283;49.760;8.648;2022-08-06T06:21:20;3.42;;;1.00;;
51216;SDS011;37283;49.760;8.648;2022-08-06T06:24:08;3.85;;;1.20;;
51216;SDS011;37283;49.760;8.648;2022-08-06T06:49:04;3.13;;;1.05;;
51216;SDS011;37283;49.760;8.648;2022-08-06T06:51:55;2.00;;;1.10;;
51216;SDS011;37283;49.760;8.648;2022-08-06T06:54:48;4.63;;;1.00;;
51216;SDS011;37283;49.760;8.648;2022-08-06T06:57:31;2.50;;;1.00;;
51216;SDS011;37283;49.760;8.648;2022-08-06T07:00:11;1.95;;;1.08;;
51216;SDS011;37283;49.760;8.648;2022-08-06T07:02:58;2.47;;;1.05;;
51216;SDS011;37283;49.760;8.648;2022-08-06T07:05:26;5.80;;;0.90;;
51216;SDS011;37283;49.760;8.648;2022-08-06T07:08:13;2.58;;;1.10;;
51216;SDS011;37283;49.760;8.648;2022-08-06T07:10:55;3.85;;;0.90;;
51216;SDS011;37283;49.760;8.648;2022-08-06T07:13:23;1.73;;;0.82;;
51216;SDS011;37283;49.760;8.648;2022-08-06T07:16:10;3.13;;;0.90;;
51216;SDS011;37283;49.760;8.648;2022-08-06T07:18:59;3.20;;;0.90;;
51216;SDS011;37283;49.760;8.648;2022-08-06T07:21:26;3.05;;;1.05;;
51216;SDS011;37283;49.760;8.648;2022-08-06T07:23:53;4.30;;;1.00;;
51216;SDS011;37283;49.760;8.648;2022-08-06T07:26:35;2.85;;;0.90;;
51216;SDS011;37283;49.760;8.648;2022-08-06T07:29:14;4.65;;;0.95;;
51216;SDS011;37283;49.760;8.648;2022-08-06T07:32:01;4.70;;;0.82;;
51216;SDS011;37283;49.760;8.648;2022-08-06T07:34:30;5.07;;;1.05;;
51216;SDS011;37283;49.760;8.648;2022-08-06T07:36:59;1.90;;;0.80;;
51216;SDS011;37283;49.760;8.648;2022-08-06T07:39:31;2.25;;;1.02;;
51216;SDS011;37283;49.760;8.648;2022-08-06T07:42:01;1.33;;;0.73;;
51216;SDS011;37283;49.760;8.648;2022-08-06T07:44:38;2.92;;;0.80;;
51216;SDS011;37283;49.760;8.648;2022-08-06T07:47:24;1.85;;;0.90;;
51216;SDS011;37283;49.760;8.648;2022-08-06T07:50:15;3.50;;;0.90;;
51216;SDS011;37283;49.760;8.648;2022-08-06T07:52:42;3.60;;;0.88;;
51216;SDS011;37283;49.760;8.648;2022-08-06T07:55:09;4.47;;;0.98;;
51216;SDS011;37283;49.760;8.648;2022-08-06T07:57:38;3.10;;;1.10;;
51216;SDS011;37283;49.760;8.648;2022-08-06T08:00:24;2.75;;;0.80;;
51216;SDS011;37283;49.760;8.648;2022-08-06T08:02:54;5.07;;;1.15;;
51216;SDS011;37283;49.760;8.648;2022-08-06T08:06:01;3.30;;;0.90;;
51216;SDS011;37283;49.760;8.648;2022-08-06T08:08:52;1.90;;;0.95;;
51216;SDS011;37283;49.760;8.648;2022-08-06T08:11:24;3.65;;;1.00;;
51216;SDS011;37283;49.760;8.648;2022-08-06T08:14:12;2.30;;;0.90;;
51216;SDS011;37283;49.760;8.648;2022-08-06T08:16:40;2.25;;;0.70;;
51216;SDS011;37283;49.760;8.648;2022-08-06T08:19:27;2.10;;;0.93;;
51216;SDS011;37283;49.760;8.648;2022-08-06T08:22:11;2.05;;;0.82;;
51216;SDS011;37283;49.760;8.648;2022-08-06T08:24:41;3.22;;;0.90;;
51216;SDS011;37283;49.760;8.648;2022-08-06T08:27:19;3.45;;;0.90;;
51216;SDS011;37283;49.760;8.648;2022-08-06T08:29:52;3.67;;;0.80;;
51216;SDS011;37283;49.760;8.648;2022-08-06T08:32:22;5.65;;;0.88;;
51216;SDS011;37283;49.760;8.648;2022-08-06T08:34:49;2.85;;;0.90;;
51216;SDS011;37283;49.760;8.648;2022-08-06T08:37:18;1.75;;;0.63;;
51216;SDS011;37283;49.760;8.648;2022-08-06T08:39:46;5.32;;;1.05;;
51216;SDS011;37283;49.760;8.648;2022-08-06T08:42:19;3.05;;;0.70;;
51216;SDS011;37283;49.760;8.648;2022-08-06T08:44:58;2.72;;;0.80;;
51216;SDS011;37283;49.760;8.648;2022-08-06T08:47:25;5.00;;;1.00;;
51216;SDS011;37283;49.760;8.648;2022-08-06T08:50:12;2.33;;;0.80;;
51216;SDS011;37283;49.760;8.648;2022-08-06T08:52:43;1.92;;;0.70;;
51216;SDS011;37283;49.760;8.648;2022-08-06T08:55:11;1.73;;;0.70;;
51216;SDS011;37283;49.760;8.648;2022-08-06T08:58:00;3.70;;;0.80;;
51216;SDS011;37283;49.760;8.648;2022-08-06T09:00:48;2.58;;;0.80;;
51216;SDS011;37283;49.760;8.648;2022-08-06T09:03:17;3.40;;;0.77;;
51216;SDS011;37283;49.760;8.648;2022-08-06T09:05:44;2.65;;;0.90;;
51216;SDS011;37283;49.760;8.648;2022-08-06T09:08:12;2.93;;;0.80;;
51216;SDS011;37283;49.760;8.648;2022-08-06T09:10:59;2.42;;;0.75;;
51216;SDS011;37283;49.760;8.648;2022-08-06T09:13:32;3.08;;;0.88;;
51216;SDS011;37283;49.760;8.648;2022-08-06T09:16:17;3.63;;;0.90;;
51216;SDS011;37283;49.760;8.648;2022-08-06T09:18:56;4.20;;;0.80;;
51216;SDS011;37283;49.760;8.648;2022-08-06T09:21:24;4.80;;;0.90;;
51216;SDS011;37283;49.760;8.648;2022-08-06T09:23:54;3.08;;;0.80;;
51216;SDS011;37283;49.760;8.648;2022-08-06T09:26:23;2.22;;;0.63;;
51216;SDS011;37283;49.760;8.648;2022-08-06T09:29:20;6.25;;;1.30;;
51216;SDS011;37283;49.760;8.648;2022-08-06T09:31:57;2.00;;;0.60;;
51216;SDS011;37283;49.760;8.648;2022-08-06T09:34:32;5.03;;;1.00;;
51216;SDS011;37283;49.760;8.648;2022-08-06T09:37:06;3.03;;;0.70;;
51216;SDS011;37283;49.760;8.648;2022-08-06T09:39:34;2.53;;;0.80;;
51216;SDS011;37283;49.760;8.648;2022-08-06T09:42:38;5.07;;;0.93;;
51216;SDS011;37283;49.760;8.648;2022-08-06T09:45:08;3.42;;;0.80;;
51216;SDS011;37283;49.760;8.648;2022-08-06T09:47:43;3.95;;;0.50;;
51216;SDS011;37283;49.760;8.648;2022-08-06T09:50:40;2.40;;;0.85;;
51216;SDS011;37283;49.760;8.648;2022-08-06T09:53:10;2.53;;;0.70;;
51216;SDS011;37283;49.760;8.648;2022-08-06T09:55:43;1.80;;;0.73;;
51216;SDS011;37283;49.760;8.648;2022-08-06T09:58:10;2.25;;;0.70;;
51216;SDS011;37283;49.760;8.648;2022-08-06T10:00:37;1.95;;;0.60;;
51216;SDS011;37283;49.760;8.648;2022-08-06T10:03:05;2.33;;;0.75;;
51216;SDS011;37283;49.760;8.648;2022-08-06T10:06:07;1.50;;;0.60;;
51216;SDS011;37283;49.760;8.648;2022-08-06T10:08:40;2.10;;;0.80;;
51216;SDS011;37283;49.760;8.648;2022-08-06T10:11:11;2.10;;;0.70;;
51216;SDS011;37283;49.760;8.648;2022-08-06T10:13:38;2.92;;;0.80;;
51216;SDS011;37283;49.760;8.648;2022-08-06T10:16:17;2.97;;;0.50;;
51216;SDS011;37283;49.760;8.648;2022-08-06T10:18:49;3.67;;;0.60;;
51216;SDS011;37283;49.760;8.648;2022-08-06T10:21:24;2.05;;;0.60;;
51216;SDS011;37283;49.760;8.648;2022-08-06T10:24:07;2.70;;;0.90;;
51216;SDS011;37283;49.760;8.648;2022-08-06T10:26:34;1.80;;;0.70;;
51216;SDS011;37283;49.760;8.648;2022-08-06T10:29:05;2.70;;;0.63;;
51216;SDS011;37283;49.760;8.648;2022-08-06T10:31:33;1.73;;;0.60;;
51216;SDS011;37283;49.760;8.648;2022-08-06T10:34:11;1.67;;;0.57;;
51216;SDS011;37283;49.760;8.648;2022-08-06T10:36:53;3.35;;;0.68;;
51216;SDS011;37283;49.760;8.648;2022-08-06T10:39:28;1.70;;;0.70;;
51216;SDS011;37283;49.760;8.648;2022-08-06T10:42:17;2.28;;;0.65;;
51216;SDS011;37283;49.760;8.648;2022-08-06T10:44:48;1.38;;;0.60;;
51216;SDS011;37283;49.760;8.648;2022-08-06T10:47:19;1.15;;;0.55;;
51216;SDS011;37283;49.760;8.648;2022-08-06T10:50:07;2.35;;;0.70;;
51216;SDS011;37283;49.760;8.648;2022-08-06T10:52:56;1.50;;;0.68;;
51216;SDS011;37283;49.760;8.648;2022-08-06T10:55:24;1.13;;;0.70;;
51216;SDS011;37283;49.760;8.648;2022-08-06T10:58:10;1.45;;;0.60;;
51216;SDS011;37283;49.760;8.648;2022-08-06T11:00:38;1.13;;;0.60;;
51216;SDS011;37283;49.760;8.648;2022-08-06T11:03:27;3.92;;;0.98;;
51216;SDS011;37283;49.760;8.648;2022-08-06T11:06:11;2.08;;;0.70;;
51216;SDS011;37283;49.760;8.648;2022-08-06T11:09:10;1.15;;;0.60;;
51216;SDS011;37283;49.760;8.648;2022-08-06T11:11:51;1.77;;;0.73;;
51216;SDS011;37283;49.760;8.648;2022-08-06T11:14:40;1.63;;;0.60;;
51216;SDS011;37283;49.760;8.648;2022-08-06T11:17:06;4.90;;;0.70;;
51216;SDS011;37283;49.760;8.648;2022-08-06T11:19:43;1.60;;;0.55;;
51216;SDS011;37283;49.760;8.648;2022-08-06T11:22:39;3.50;;;0.70;;
51216;SDS011;37283;49.760;8.648;2022-08-06T11:25:20;1.45;;;0.65;;
51216;SDS011;37283;49.760;8.648;2022-08-06T11:33:14;3.58;;;0.77;;
51216;SDS011;37283;49.760;8.648;2022-08-06T11:35:48;3.40;;;0.70;;
51216;SDS011;37283;49.760;8.648;2022-08-06T11:41:21;1.65;;;0.70;;
51216;SDS011;37283;49.760;8.648;2022-08-06T11:44:09;4.78;;;0.70;;
51216;SDS011;37283;49.760;8.648;2022-08-06T11:46:41;2.17;;;0.52;;
51216;SDS011;37283;49.760;8.648;2022-08-06T11:49:24;3.30;;;0.75;;
51216;SDS011;37283;49.760;8.648;2022-08-06T11:52:37;1.80;;;0.90;;
51216;SDS011;37283;49.760;8.648;2022-08-06T11:55:10;2.20;;;0.70;;
51216;SDS011;37283;49.760;8.648;2022-08-06T11:57:49;3.42;;;0.75;;
51216;SDS011;37283;49.760;8.648;2022-08-06T12:00:21;1.95;;;0.57;;
51216;SDS011;37283;49.760;8.648;2022-08-06T12:02:52;3.38;;;0.80;;
51216;SDS011;37283;49.760;8.648;2022-08-06T12:13:50;1.33;;;0.55;;
51216;SDS011;37283;49.760;8.648;2022-08-06T12:16:26;1.73;;;0.60;;
51216;SDS011;37283;49.760;8.648;2022-08-06T12:18:54;1.58;;;0.50;;
51216;SDS011;37283;49.760;8.648;2022-08-06T12:21:21;0.85;;;0.50;;
51216;SDS011;37283;49.760;8.648;2022-08-06T12:23:52;1.52;;;0.57;;
51216;SDS011;37283;49.760;8.648;2022-08-06T12:26:22;2.13;;;0.70;;
51216;SDS011;37283;49.760;8.648;2022-08-06T12:29:02;5.78;;;0.60;;
51216;SDS011;37283;49.760;8.648;2022-08-06T12:31:30;2.13;;;0.80;;
51216;SDS011;37283;49.760;8.648;2022-08-06T12:34:10;2.40;;;1.00;;
51216;SDS011;37283;49.760;8.648;2022-08-06T12:36:53;2.25;;;0.68;;
51216;SDS011;37283;49.760;8.648;2022-08-06T12:39:22;2.60;;;0.60;;
51216;SDS011;37283;49.760;8.648;2022-08-06T12:42:23;2.08;;;0.73;;
51216;SDS011;37283;49.760;8.648;2022-08-06T12:45:10;1.27;;;0.40;;
51216;SDS011;37283;49.760;8.648;2022-08-06T12:48:08;2.88;;;0.57;;
51216;SDS011;37283;49.760;8.648;2022-08-06T12:50:41;2.40;;;0.50;;
51216;SDS011;37283;49.760;8.648;2022-08-06T12:53:12;2.38;;;0.50;;
51216;SDS011;37283;49.760;8.648;2022-08-06T12:58:24;1.70;;;0.60;;
51216;SDS011;37283;49.760;8.648;2022-08-06T13:01:12;1.85;;;0.60;;
51216;SDS011;37283;49.760;8.648;2022-08-06T13:04:00;3.42;;;0.70;;
51216;SDS011;37283;49.760;8.648;2022-08-06T13:06:34;2.05;;;0.80;;
51216;SDS011;37283;49.760;8.648;2022-08-06T13:09:02;2.28;;;0.75;;
51216;SDS011;37283;49.760;8.648;2022-08-06T13:11:33;1.60;;;0.70;;
51216;SDS011;37283;49.760;8.648;2022-08-06T13:14:12;2.17;;;0.70;;
51216;SDS011;37283;49.760;8.648;2022-08-06T13:16:45;1.67;;;0.70;;
51216;SDS011;37283;49.760;8.648;2022-08-06T13:19:21;2.38;;;0.60;;
51216;SDS011;37283;49.760;8.648;2022-08-06T13:21:59;1.40;;;0.50;;
51216;SDS011;37283;49.760;8.648;2022-08-06T13:24:28;1.25;;;0.73;;
51216;SDS011;37283;49.760;8.648;2022-08-06T13:27:00;1.63;;;0.77;;
51216;SDS011;37283;49.760;8.648;2022-08-06T13:29:28;3.17;;;0.60;;
51216;SDS011;37283;49.760;8.648;2022-08-06T13:32:14;1.55;;;0.68;;
51216;SDS011;37283;49.760;8.648;2022-08-06T13:34:58;1.25;;;0.60;;
51216;SDS011;37283;49.760;8.648;2022-08-06T13:40:35;1.88;;;0.60;;
51216;SDS011;37283;49.760;8.648;2022-08-06T13:43:33;2.10;;;0.60;;
51216;SDS011;37283;49.760;8.648;2022-08-06T13:46:19;2.42;;;0.60;;
51216;SDS011;37283;49.760;8.648;2022-08-06T13:48:54;1.98;;;0.75;;
51216;SDS011;37283;49.760;8.648;2022-08-06T13:51:25;2.50;;;0.73;;
51216;SDS011;37283;49.760;8.648;2022-08-06T13:53:54;0.98;;;0.57;;
51216;SDS011;37283;49.760;8.648;2022-08-06T13:56:23;2.05;;;0.50;;
51216;SDS011;37283;49.760;8.648;2022-08-06T13:58:56;2.13;;;0.65;;
51216;SDS011;37283;49.760;8.648;2022-08-06T14:01:23;1.07;;;0.60;;
51216;SDS011;37283;49.760;8.648;2022-08-06T14:04:00;1.63;;;0.60;;
51216;SDS011;37283;49.760;8.648;2022-08-06T14:06:27;3.28;;;0.70;;
51216;SDS011;37283;49.760;8.648;2022-08-06T14:08:54;1.05;;;0.52;;
51216;SDS011;37283;49.760;8.648;2022-08-06T14:11:24;3.67;;;0.60;;
51216;SDS011;37283;49.760;8.648;2022-08-06T14:13:53;3.05;;;0.70;;
51216;SDS011;37283;49.760;8.648;2022-08-06T14:16:19;1.95;;;0.52;;
51216;SDS011;37283;49.760;8.648;2022-08-06T14:18:46;2.55;;;0.70;;
51216;SDS011;37283;49.760;8.648;2022-08-06T14:21:28;1.13;;;0.60;;
51216;SDS011;37283;49.760;8.648;2022-08-06T14:23:56;1.73;;;0.93;;
51216;SDS011;37283;49.760;8.648;2022-08-06T14:26:27;0.98;;;0.45;;
51216;SDS011;37283;49.760;8.648;2022-08-06T14:28:54;3.30;;;0.70;;
51216;SDS011;37283;49.760;8.648;2022-08-06T14:31:40;2.08;;;0.60;;
51216;SDS011;37283;49.760;8.648;2022-08-06T14:34:23;0.68;;;0.43;;
51216;SDS011;37283;49.760;8.648;2022-08-06T14:37:01;2.60;;;0.60;;
51216;SDS011;37283;49.760;8.648;2022-08-06T14:39:28;1.13;;;0.43;;
51216;SDS011;37283;49.760;8.648;2022-08-06T14:42:15;3.13;;;0.90;;
51216;SDS011;37283;49.760;8.648;2022-08-06T14:45:03;2.38;;;0.60;;
51216;SDS011;37283;49.760;8.648;2022-08-06T14:47:32;0.90;;;0.50;;
51216;SDS011;37283;49.760;8.648;2022-08-06T14:50:19;2.15;;;0.70;;
51216;SDS011;37283;49.760;8.648;2022-08-06T14:53:01;2.63;;;0.65;;
51216;SDS011;37283;49.760;8.648;2022-08-06T14:55:28;1.90;;;0.70;;
51216;SDS011;37283;49.760;8.648;2022-08-06T14:57:56;1.23;;;0.70;;
51216;SDS011;37283;49.760;8.648;2022-08-06T15:00:34;1.77;;;0.45;;
51216;SDS011;37283;49.760;8.648;2022-08-06T15:05:39;1.58;;;0.50;;
51216;SDS011;37283;49.760;8.648;2022-08-06T15:08:26;1.70;;;0.68;;
51216;SDS011;37283;49.760;8.648;2022-08-06T15:10:54;1.73;;;0.50;;
51216;SDS011;37283;49.760;8.648;2022-08-06T15:13:21;1.40;;;0.90;;
51216;SDS011;37283;49.760;8.648;2022-08-06T15:16:03;1.77;;;0.70;;
51216;SDS011;37283;49.760;8.648;2022-08-06T15:18:50;2.53;;;0.75;;
51216;SDS011;37283;49.760;8.648;2022-08-06T15:21:36;2.05;;;0.70;;
51216;SDS011;37283;49.760;8.648;2022-08-06T15:24:19;2.08;;;0.52;;
51216;SDS011;37283;49.760;8.648;2022-08-06T15:26:45;1.70;;;0.60;;
51216;SDS011;37283;49.760;8.648;2022-08-06T15:29:15;1.20;;;0.57;;
51216;SDS011;37283;49.760;8.648;2022-08-06T15:31:43;2.50;;;0.50;;
51216;SDS011;37283;49.760;8.648;2022-08-06T15:34:10;3.03;;;0.60;;
51216;SDS011;37283;49.760;8.648;2022-08-06T15:36:38;1.87;;;0.67;;
51216;SDS011;37283;49.760;8.648;2022-08-06T15:39:25;2.28;;;0.60;;
51216;SDS011;37283;49.760;8.648;2022-08-06T15:42:11;2.88;;;0.60;;
51216;SDS011;37283;49.760;8.648;2022-08-06T15:44:39;2.10;;;0.98;;
51216;SDS011;37283;49.760;8.648;2022-08-06T15:47:07;1.60;;;0.70;;
51216;SDS011;37283;49.760;8.648;2022-08-06T15:49:34;1.98;;;0.50;;
51216;SDS011;37283;49.760;8.648;2022-08-06T15:52:23;1.95;;;0.60;;
51216;SDS011;37283;49.760;8.648;2022-08-06T15:54:51;1.38;;;0.50;;
51216;SDS011;37283;49.760;8.648;2022-08-06T15:57:18;0.70;;;0.60;;
51216;SDS011;37283;49.760;8.648;2022-08-06T16:00:08;2.25;;;0.77;;
51216;SDS011;37283;49.760;8.648;2022-08-06T16:02:43;1.40;;;0.60;;
51216;SDS011;37283;49.760;8.648;2022-08-06T16:05:16;1.42;;;0.70;;
51216;SDS011;37283;49.760;8.648;2022-08-06T16:08:04;0.98;;;0.60;;
51216;SDS011;37283;49.760;8.648;2022-08-06T16:10:35;1.02;;;0.40;;
51216;SDS011;37283;49.760;8.648;2022-08-06T16:13:06;1.42;;;0.68;;
51216;SDS011;37283;49.760;8.648;2022-08-06T16:15:32;2.17;;;0.75;;
51216;SDS011;37283;49.760;8.648;2022-08-06T16:18:02;1.58;;;0.55;;
51216;SDS011;37283;49.760;8.648;2022-08-06T16:20:49;2.88;;;0.85;;
51216;SDS011;37283;49.760;8.648;2022-08-06T16:23:17;2.97;;;0.60;;
51216;SDS011;37283;49.760;8.648;2022-08-06T16:26:03;2.15;;;0.60;;
51216;SDS011;37283;49.760;8.648;2022-08-06T16:28:50;2.35;;;0.68;;
51216;SDS011;37283;49.760;8.648;2022-08-06T16:31:17;4.97;;;0.88;;
51216;SDS011;37283;49.760;8.648;2022-08-06T16:33:44;1.85;;;0.68;;
51216;SDS011;37283;49.760;8.648;2022-08-06T16:36:20;3.95;;;0.68;;
51216;SDS011;37283;49.760;8.648;2022-08-06T16:38:58;2.13;;;0.60;;
51216;SDS011;37283;49.760;8.648;2022-08-06T16:41:24;1.45;;;0.52;;
51216;SDS011;37283;49.760;8.648;2022-08-06T16:44:11;2.50;;;0.80;;
51216;SDS011;37283;49.760;8.648;2022-08-06T16:46:37;2.45;;;0.60;;